createdAt,value
2023-05-16T00:01:45.284Z,12.00
2023-05-16T00:04:12.379Z,12.00
2023-05-16T00:06:39.184Z,11.90
2023-05-16T00:09:06.002Z,12.00
2023-05-16T00:11:33.017Z,12.00
2023-05-16T00:14:01.410Z,12.00
2023-05-16T00:16:29.995Z,12.00
2023-05-16T00:19:01.095Z,12.00
2023-05-16T00:21:28.451Z,12.00
2023-05-16T00:23:55.283Z,11.90
2023-05-16T00:26:22.322Z,11.90
2023-05-16T00:28:52.246Z,11.90
2023-05-16T00:31:19.108Z,12.00
2023-05-16T00:33:46.445Z,12.00
2023-05-16T00:36:15.568Z,12.00
2023-05-16T00:39:11.570Z,12.00
2023-05-16T00:41:41.302Z,12.00
2023-05-16T00:44:09.572Z,12.00
2023-05-16T00:46:39.339Z,12.00
2023-05-16T00:49:06.582Z,12.00
2023-05-16T00:51:35.482Z,12.00
2023-05-16T00:54:03.531Z,12.00
2023-05-16T00:56:36.657Z,12.00
2023-05-16T00:59:03.913Z,12.00
2023-05-16T01:01:30.819Z,12.00
2023-05-16T01:03:58.180Z,12.10
2023-05-16T01:06:27.957Z,12.10
2023-05-16T01:08:59.541Z,12.10
2023-05-16T01:11:32.622Z,12.10
2023-05-16T01:14:18.672Z,12.10
2023-05-16T01:16:48.937Z,12.10
2023-05-16T01:19:36.329Z,12.10
2023-05-16T01:22:12.137Z,12.10
2023-05-16T01:24:52.071Z,12.00
2023-05-16T01:27:19.718Z,12.00
2023-05-16T01:29:48.422Z,12.00
2023-05-16T01:32:17.984Z,12.00
2023-05-16T01:34:45.886Z,11.90
2023-05-16T01:37:33.232Z,11.80
2023-05-16T01:40:13.163Z,11.80
2023-05-16T01:42:43.310Z,11.80
2023-05-16T01:45:12.938Z,11.80
2023-05-16T01:47:41.753Z,11.70
2023-05-16T01:50:15.823Z,11.70
2023-05-16T01:52:54.492Z,11.80
2023-05-16T01:55:33.632Z,11.80
2023-05-16T01:58:05.786Z,11.70
2023-05-16T02:00:42.287Z,11.70
2023-05-16T02:03:11.059Z,11.70
2023-05-16T02:05:38.366Z,11.70
2023-05-16T02:08:05.542Z,11.70
2023-05-16T02:10:33.498Z,11.70
2023-05-16T02:13:02.163Z,11.70
2023-05-16T02:15:30.944Z,11.70
2023-05-16T02:17:59.633Z,11.70
2023-05-16T02:20:26.573Z,11.70
2023-05-16T02:22:54.658Z,11.60
2023-05-16T02:25:21.396Z,11.60
2023-05-16T02:27:49.328Z,11.60
2023-05-16T02:30:16.248Z,11.60
2023-05-16T02:32:45.363Z,11.50
2023-05-16T02:35:19.522Z,11.50
2023-05-16T02:37:46.662Z,11.50
2023-05-16T02:40:13.796Z,11.50
2023-05-16T02:42:40.703Z,11.50
2023-05-16T02:45:13.955Z,11.50
2023-05-16T02:47:43.126Z,11.50
2023-05-16T02:50:10.156Z,11.50
2023-05-16T02:52:38.795Z,11.40
2023-05-16T02:55:20.878Z,11.40
2023-05-16T02:57:48.918Z,11.40
2023-05-16T03:00:18.405Z,11.40
2023-05-16T03:02:45.685Z,11.30
2023-05-16T03:05:12.857Z,11.30
2023-05-16T03:07:40.444Z,11.30
2023-05-16T03:10:07.561Z,11.30
2023-05-16T03:12:34.475Z,11.30
2023-05-16T03:15:01.787Z,11.30
2023-05-16T03:17:29.521Z,11.40
2023-05-16T03:19:57.376Z,11.40
2023-05-16T03:22:24.177Z,11.30
2023-05-16T03:24:51.085Z,11.30
2023-05-16T03:27:17.911Z,11.30
2023-05-16T03:29:44.750Z,11.30
2023-05-16T03:32:12.639Z,11.30
2023-05-16T03:34:39.446Z,11.30
2023-05-16T03:37:06.891Z,11.40
2023-05-16T03:39:33.846Z,11.30
2023-05-16T03:42:00.691Z,11.40
2023-05-16T03:44:27.403Z,11.30
2023-05-16T03:46:57.446Z,11.40
2023-05-16T03:49:27.227Z,11.40
2023-05-16T03:51:54.203Z,11.40
2023-05-16T03:54:21.544Z,11.30
2023-05-16T03:56:48.326Z,11.30
2023-05-16T03:59:15.102Z,11.30
2023-05-16T04:01:41.997Z,11.20
2023-05-16T04:04:08.757Z,11.20
2023-05-16T04:06:35.686Z,11.20
2023-05-16T04:09:02.488Z,11.20
2023-05-16T04:11:29.354Z,11.20
2023-05-16T04:13:56.937Z,11.20
2023-05-16T04:16:23.827Z,11.10
2023-05-16T04:18:50.784Z,11.10
2023-05-16T04:21:17.639Z,11.10
2023-05-16T04:23:44.458Z,11.10
2023-05-16T04:26:11.611Z,11.10
2023-05-16T04:28:39.401Z,11.10
2023-05-16T04:31:06.408Z,11.10
2023-05-16T04:33:33.298Z,11.10
2023-05-16T04:36:00.275Z,11.10
2023-05-16T04:38:27.120Z,11.10
2023-05-16T04:40:54.021Z,11.10
2023-05-16T04:43:20.911Z,11.00
2023-05-16T04:45:48.497Z,11.10
2023-05-16T04:48:15.453Z,11.10
2023-05-16T04:50:42.415Z,11.10
2023-05-16T04:53:09.265Z,11.10
2023-05-16T04:55:36.192Z,11.00
2023-05-16T04:58:03.196Z,11.00
2023-05-16T05:00:30.195Z,11.00
2023-05-16T05:02:57.224Z,11.00
2023-05-16T05:05:24.265Z,11.00
2023-05-16T05:07:51.233Z,11.10
2023-05-16T05:10:18.581Z,11.10
2023-05-16T05:12:51.618Z,11.10
2023-05-16T05:15:19.211Z,11.10
2023-05-16T05:17:46.207Z,11.10
2023-05-16T05:20:18.000Z,11.10
2023-05-16T05:22:45.862Z,11.10
2023-05-16T05:25:14.951Z,11.10
2023-05-16T05:27:44.901Z,11.10
2023-05-16T05:30:15.184Z,11.00
2023-05-16T05:32:42.199Z,11.00
2023-05-16T05:35:09.996Z,11.10
2023-05-16T05:37:37.162Z,11.10
2023-05-16T05:40:04.439Z,11.10
2023-05-16T05:42:31.812Z,11.20
2023-05-16T05:44:59.397Z,11.20
2023-05-16T05:47:28.963Z,11.20
2023-05-16T05:49:56.021Z,11.20
2023-05-16T05:52:22.970Z,11.20
2023-05-16T05:54:49.807Z,11.20
2023-05-16T05:57:18.872Z,11.20
2023-05-16T05:59:55.195Z,11.20
2023-05-16T06:02:22.110Z,11.20
2023-05-16T06:04:48.948Z,11.20
2023-05-16T06:07:16.880Z,11.10
2023-05-16T06:09:45.996Z,11.10
2023-05-16T06:12:12.808Z,11.10
2023-05-16T06:14:39.644Z,11.20
2023-05-16T06:17:06.464Z,11.10
2023-05-16T06:19:33.411Z,11.10
2023-05-16T06:22:00.218Z,11.10
2023-05-16T06:24:27.202Z,11.20
2023-05-16T06:26:54.005Z,11.30
2023-05-16T06:29:21.034Z,11.30
2023-05-16T06:31:50.083Z,11.40
2023-05-16T06:34:19.254Z,11.40
2023-05-16T06:36:46.147Z,11.40
2023-05-16T06:39:12.910Z,11.40
2023-05-16T06:41:40.167Z,11.40
2023-05-16T06:44:07.130Z,11.40
2023-05-16T06:46:34.412Z,11.50
2023-05-16T06:49:01.314Z,11.60
2023-05-16T06:51:28.240Z,11.60
2023-05-16T06:53:55.100Z,11.70
2023-05-16T06:56:21.962Z,11.70
2023-05-16T06:58:51.378Z,11.70
2023-05-16T07:01:18.328Z,11.70
2023-05-16T07:03:45.420Z,11.70
2023-05-16T07:06:12.336Z,11.80
2023-05-16T07:08:39.308Z,11.80
2023-05-16T07:11:06.211Z,11.80
2023-05-16T07:13:35.710Z,11.80
2023-05-16T07:16:03.104Z,11.90
2023-05-16T07:18:30.070Z,11.90
2023-05-16T07:20:56.984Z,11.90
2023-05-16T07:23:23.816Z,11.90
2023-05-16T07:25:50.867Z,12.00
2023-05-16T07:28:17.678Z,12.00
2023-05-16T07:30:44.973Z,12.00
2023-05-16T07:33:11.841Z,12.00
2023-05-16T07:35:39.198Z,12.00
2023-05-16T07:38:06.286Z,12.00
2023-05-16T07:40:33.104Z,12.00
2023-05-16T07:43:00.221Z,12.00
2023-05-16T07:45:27.373Z,12.00
2023-05-16T07:47:54.636Z,12.00
2023-05-16T07:50:21.528Z,12.10
2023-05-16T07:52:48.393Z,12.20
2023-05-16T07:55:15.413Z,12.20
2023-05-16T07:57:43.708Z,12.20
2023-05-16T08:00:10.864Z,12.30
2023-05-16T08:02:41.051Z,12.20
2023-05-16T08:05:08.382Z,12.20
2023-05-16T08:07:35.276Z,12.20
2023-05-16T08:10:02.080Z,12.30
2023-05-16T08:12:30.996Z,12.30
2023-05-16T08:14:57.791Z,12.30
2023-05-16T08:17:24.863Z,12.30
2023-05-16T08:19:51.737Z,12.30
2023-05-16T08:22:18.642Z,12.30
2023-05-16T08:24:45.644Z,12.30
2023-05-16T08:27:12.934Z,12.30
2023-05-16T08:29:39.781Z,12.40
2023-05-16T08:32:06.811Z,12.40
2023-05-16T08:34:33.618Z,12.40
2023-05-16T08:37:00.585Z,12.40
2023-05-16T08:39:27.394Z,12.30
2023-05-16T08:41:54.243Z,12.40
2023-05-16T08:44:24.104Z,12.40
2023-05-16T08:46:52.532Z,12.50
2023-05-16T08:49:19.993Z,12.50
2023-05-16T08:51:47.587Z,12.60
2023-05-16T08:54:15.915Z,12.50
2023-05-16T08:56:43.442Z,12.50
2023-05-16T08:59:11.435Z,12.50
2023-05-16T09:01:38.645Z,12.50
2023-05-16T09:04:10.224Z,12.50
2023-05-16T09:06:37.523Z,12.60
2023-05-16T09:09:07.925Z,12.60
2023-05-16T09:11:37.101Z,12.70
2023-05-16T09:14:05.633Z,12.70
2023-05-16T09:16:32.672Z,12.80
2023-05-16T09:19:00.514Z,12.80
2023-05-16T09:21:28.483Z,12.90
2023-05-16T09:23:55.373Z,12.80
2023-05-16T09:26:22.737Z,12.80
2023-05-16T09:28:53.277Z,12.80
2023-05-16T09:31:21.862Z,12.80
2023-05-16T09:33:50.680Z,12.80
2023-05-16T09:36:17.557Z,12.80
2023-05-16T09:38:45.029Z,12.80
2023-05-16T09:41:11.974Z,12.80
2023-05-16T09:43:41.682Z,12.80
2023-05-16T09:46:09.002Z,12.80
2023-05-16T09:48:36.340Z,12.80
2023-05-16T09:51:05.699Z,12.80
2023-05-16T09:53:33.382Z,12.70
2023-05-16T09:56:01.679Z,12.70
2023-05-16T09:58:28.986Z,12.60
2023-05-16T10:00:56.754Z,12.50
2023-05-16T10:03:23.657Z,12.50
2023-05-16T10:05:51.016Z,12.50
2023-05-16T10:08:18.124Z,12.50
2023-05-16T10:10:45.412Z,12.60
2023-05-16T10:13:14.048Z,12.60
2023-05-16T10:15:41.350Z,12.60
2023-05-16T10:18:13.060Z,12.70
2023-05-16T10:20:42.332Z,12.80
2023-05-16T10:23:09.844Z,12.90
2023-05-16T10:25:39.049Z,13.00
2023-05-16T10:28:07.116Z,13.00
2023-05-16T10:30:37.492Z,13.00
2023-05-16T10:33:04.679Z,13.00
2023-05-16T10:35:32.779Z,12.90
2023-05-16T10:38:00.714Z,12.90
2023-05-16T10:40:28.777Z,12.80
2023-05-16T10:43:00.341Z,12.80
2023-05-16T10:45:27.654Z,12.80
2023-05-16T10:47:55.982Z,12.70
2023-05-16T10:50:35.180Z,12.70
2023-05-16T10:53:32.320Z,12.70
2023-05-16T10:55:59.115Z,12.60
2023-05-16T10:58:35.292Z,12.60
2023-05-16T11:01:14.822Z,12.60
2023-05-16T11:03:57.385Z,12.60
2023-05-16T11:06:34.956Z,12.60
2023-05-16T11:09:11.238Z,12.60
2023-05-16T11:11:48.305Z,12.60
2023-05-16T11:14:25.471Z,12.50
2023-05-16T11:16:53.824Z,12.50
2023-05-16T11:19:33.071Z,12.50
2023-05-16T11:22:18.366Z,12.60
2023-05-16T11:25:04.345Z,12.60
2023-05-16T11:27:32.559Z,12.60
2023-05-16T11:30:05.881Z,12.50
2023-05-16T11:32:39.143Z,12.60
2023-05-16T11:35:08.016Z,12.70
2023-05-16T11:37:36.489Z,12.60
2023-05-16T11:40:04.484Z,12.70
2023-05-16T11:42:34.311Z,12.70
2023-05-16T11:45:12.293Z,12.70
2023-05-16T11:47:40.303Z,12.80
2023-05-16T11:50:21.138Z,12.80
2023-05-16T11:52:49.048Z,12.80
2023-05-16T11:55:28.257Z,12.90
2023-05-16T11:58:06.576Z,12.90
2023-05-16T12:00:33.658Z,12.90
2023-05-16T12:03:02.093Z,12.90
2023-05-16T12:05:32.077Z,12.80
2023-05-16T12:07:59.926Z,12.70
2023-05-16T12:10:27.215Z,12.60
2023-05-16T12:12:57.148Z,12.70
2023-05-16T12:15:24.021Z,12.70
2023-05-16T12:17:51.065Z,12.70
2023-05-16T12:20:18.350Z,12.70
2023-05-16T12:22:45.480Z,12.80
2023-05-16T12:25:21.348Z,12.80
2023-05-16T12:27:48.194Z,12.90
2023-05-16T12:30:17.076Z,12.90
2023-05-16T12:32:44.166Z,13.00
2023-05-16T12:35:13.281Z,12.90
2023-05-16T12:37:40.255Z,12.90
2023-05-16T12:40:12.555Z,12.90
2023-05-16T12:42:39.346Z,12.90
2023-05-16T12:45:14.467Z,12.80
2023-05-16T12:47:41.294Z,12.80
2023-05-16T12:50:14.857Z,12.70
2023-05-16T12:52:52.001Z,12.60
2023-05-16T12:55:19.629Z,12.60
2023-05-16T12:57:49.890Z,12.60
2023-05-16T13:00:20.739Z,12.70
2023-05-16T13:02:48.691Z,12.70
2023-05-16T13:05:16.295Z,12.70
2023-05-16T13:07:43.121Z,12.70
2023-05-16T13:10:10.850Z,12.80
2023-05-16T13:12:39.168Z,12.80
2023-05-16T13:15:09.715Z,12.80
2023-05-16T13:17:37.532Z,12.80
2023-05-16T13:20:13.552Z,12.50
2023-05-16T13:22:41.082Z,12.50
2023-05-16T13:25:08.830Z,12.40
2023-05-16T13:27:35.829Z,12.40
2023-05-16T13:30:04.176Z,12.40
2023-05-16T13:32:31.063Z,12.50
2023-05-16T13:34:57.921Z,12.60
2023-05-16T13:37:24.751Z,12.50
2023-05-16T13:40:17.345Z,12.50
2023-05-16T13:42:44.162Z,12.30
2023-05-16T13:45:11.186Z,12.20
2023-05-16T13:47:38.124Z,12.20
2023-05-16T13:50:09.243Z,12.10
2023-05-16T13:52:38.025Z,12.10
2023-05-16T13:55:05.588Z,12.10
2023-05-16T13:57:33.135Z,12.10
2023-05-16T14:00:24.937Z,12.00
2023-05-16T14:02:47.054Z,12.00
2023-05-16T14:05:13.985Z,12.00
2023-05-16T14:07:41.348Z,12.00
2023-05-16T14:10:08.681Z,12.00
2023-05-16T14:12:36.430Z,12.00
2023-05-16T14:15:03.595Z,12.10
2023-05-16T14:17:30.511Z,12.10
2023-05-16T14:19:57.389Z,12.10
2023-05-16T14:22:24.281Z,12.10
2023-05-16T14:24:51.054Z,12.20
2023-05-16T14:27:17.862Z,12.20
2023-05-16T14:29:44.768Z,12.20
2023-05-16T14:32:12.891Z,12.30
2023-05-16T14:34:39.766Z,12.20
2023-05-16T14:37:06.822Z,12.00
2023-05-16T14:39:33.625Z,11.90
2023-05-16T14:42:00.733Z,11.90
2023-05-16T14:44:27.538Z,12.00
2023-05-16T14:46:54.417Z,12.10
2023-05-16T14:49:21.285Z,12.10
2023-05-16T14:51:50.491Z,12.20
2023-05-16T14:54:17.411Z,12.30
2023-05-16T14:56:44.924Z,12.40
2023-05-16T14:59:12.756Z,12.40
2023-05-16T15:01:39.705Z,12.40
2023-05-16T15:04:06.589Z,12.40
2023-05-16T15:06:33.491Z,12.50
2023-05-16T15:09:00.533Z,12.50
2023-05-16T15:11:30.269Z,12.50
2023-05-16T15:13:57.388Z,12.40
2023-05-16T15:16:24.254Z,12.50
2023-05-16T15:18:51.196Z,12.40
2023-05-16T15:21:18.074Z,12.40
2023-05-16T15:23:45.214Z,12.40
2023-05-16T15:26:12.407Z,12.40
2023-05-16T15:28:39.218Z,12.40
2023-05-16T15:31:06.086Z,12.40
2023-05-16T15:33:32.985Z,12.40
2023-05-16T15:35:59.904Z,12.40
2023-05-16T15:38:27.203Z,12.50
2023-05-16T15:41:09.809Z,12.50
2023-05-16T15:43:40.790Z,12.50
2023-05-16T15:46:09.006Z,12.40
2023-05-16T15:48:36.303Z,12.40
2023-05-16T15:51:04.305Z,12.30
2023-05-16T15:53:31.166Z,12.30
2023-05-16T15:55:58.004Z,12.20
2023-05-16T15:58:24.937Z,12.20
2023-05-16T16:00:51.873Z,12.20
2023-05-16T16:03:18.851Z,12.20
2023-05-16T16:05:45.845Z,12.20
2023-05-16T16:08:12.659Z,12.20
2023-05-16T16:10:39.497Z,12.20
2023-05-16T16:13:06.386Z,12.20
2023-05-16T16:15:34.069Z,12.30
2023-05-16T16:18:01.331Z,12.30
2023-05-16T16:20:28.468Z,12.30
2023-05-16T16:22:55.364Z,12.30
2023-05-16T16:25:22.392Z,12.30
2023-05-16T16:27:49.302Z,12.30
2023-05-16T16:30:16.437Z,12.20
2023-05-16T16:32:43.354Z,12.20
2023-05-16T16:35:10.359Z,12.30
2023-05-16T16:37:37.201Z,12.30
2023-05-16T16:40:04.985Z,12.30
2023-05-16T16:42:31.880Z,12.30
2023-05-16T16:44:58.866Z,12.30
2023-05-16T16:47:26.279Z,12.30
2023-05-16T16:49:53.180Z,12.30
2023-05-16T16:52:19.967Z,12.30
2023-05-16T16:54:46.762Z,12.30
2023-05-16T16:57:13.597Z,12.30
2023-05-16T16:59:40.531Z,12.30
2023-05-16T17:02:07.491Z,12.20
2023-05-16T17:04:37.580Z,12.20
2023-05-16T17:07:04.703Z,12.10
2023-05-16T17:09:31.953Z,12.10
2023-05-16T17:12:04.643Z,12.10
2023-05-16T17:14:31.570Z,12.10
2023-05-16T17:16:58.562Z,12.10
2023-05-16T17:19:25.559Z,12.10
2023-05-16T17:21:52.884Z,12.10
2023-05-16T17:24:19.652Z,12.00
2023-05-16T17:26:46.827Z,11.90
2023-05-16T17:29:13.692Z,11.90
2023-05-16T17:31:40.551Z,11.90
2023-05-16T17:34:07.807Z,11.90
2023-05-16T17:36:34.718Z,11.80
2023-05-16T17:39:01.669Z,11.80
2023-05-16T17:41:28.838Z,11.80
2023-05-16T17:43:55.898Z,11.80
2023-05-16T17:46:22.837Z,11.80
2023-05-16T17:48:49.742Z,11.70
2023-05-16T17:51:16.652Z,11.70
2023-05-16T17:53:44.310Z,11.70
2023-05-16T17:56:11.297Z,11.60
2023-05-16T17:58:39.138Z,11.60
2023-05-16T18:01:08.379Z,11.60
2023-05-16T18:03:36.208Z,11.50
2023-05-16T18:06:09.831Z,11.50
2023-05-16T18:08:37.037Z,11.50
2023-05-16T18:11:24.246Z,11.50
2023-05-16T18:13:51.040Z,11.40
2023-05-16T18:16:17.880Z,11.40
2023-05-16T18:18:47.109Z,11.40
2023-05-16T18:21:14.049Z,11.40
2023-05-16T18:23:41.152Z,11.40
2023-05-16T18:26:08.018Z,11.40
2023-05-16T18:28:41.224Z,11.40
2023-05-16T18:31:41.169Z,11.40
2023-05-16T18:34:09.185Z,11.40
2023-05-16T18:36:44.319Z,11.40
2023-05-16T18:39:11.362Z,11.40
2023-05-16T18:41:38.372Z,11.40
2023-05-16T18:44:05.554Z,11.40
2023-05-16T18:46:35.012Z,11.30
2023-05-16T18:49:01.890Z,11.30
2023-05-16T18:51:28.948Z,11.30
2023-05-16T18:53:55.887Z,11.30
2023-05-16T18:56:22.928Z,11.30
2023-05-16T18:59:14.949Z,11.30
2023-05-16T19:01:41.797Z,11.20
2023-05-16T19:04:09.062Z,11.20
2023-05-16T19:06:35.999Z,11.20
2023-05-16T19:09:05.748Z,11.20
2023-05-16T19:11:36.424Z,11.10
2023-05-16T19:14:03.416Z,11.20
2023-05-16T19:16:30.527Z,11.20
2023-05-16T19:18:58.164Z,11.20
2023-05-16T19:21:26.778Z,11.20
2023-05-16T19:23:53.864Z,11.10
2023-05-16T19:26:23.064Z,11.10
2023-05-16T19:28:50.294Z,11.10
2023-05-16T19:31:17.336Z,11.10
2023-05-16T19:33:44.414Z,11.10
2023-05-16T19:36:11.852Z,11.10
2023-05-16T19:38:38.718Z,11.10
2023-05-16T19:41:05.726Z,11.10
2023-05-16T19:43:33.788Z,11.10
2023-05-16T19:46:00.699Z,11.10
2023-05-16T19:48:28.043Z,11.10
2023-05-16T19:50:55.123Z,11.10
2023-05-16T19:53:22.146Z,11.10
2023-05-16T19:55:49.555Z,11.10
2023-05-16T19:58:16.484Z,11.00
2023-05-16T20:00:43.394Z,11.00
2023-05-16T20:03:22.534Z,11.00
2023-05-16T20:05:49.489Z,11.00
2023-05-16T20:08:16.667Z,11.00
2023-05-16T20:10:43.862Z,10.90
2023-05-16T20:13:10.787Z,10.90
2023-05-16T20:15:37.806Z,10.90
2023-05-16T20:18:40.335Z,10.90
2023-05-16T20:21:07.370Z,11.00
2023-05-16T20:23:35.183Z,10.90
2023-05-16T20:26:02.979Z,10.90
2023-05-16T20:28:30.817Z,10.80
2023-05-16T20:31:23.323Z,10.90
2023-05-16T20:33:50.735Z,10.80
2023-05-16T20:36:19.836Z,10.80
2023-05-16T20:38:46.919Z,10.80
2023-05-16T20:41:13.929Z,10.80
2023-05-16T20:43:40.852Z,10.80
2023-05-16T20:46:08.209Z,10.80
2023-05-16T20:48:35.156Z,10.80
2023-05-16T20:51:02.176Z,10.80
2023-05-16T20:53:29.097Z,10.80
2023-05-16T20:56:08.591Z,10.80
2023-05-16T20:58:35.716Z,10.80
2023-05-16T21:01:06.193Z,10.80
2023-05-16T21:03:33.144Z,10.90
2023-05-16T21:06:00.223Z,10.80
2023-05-16T21:08:27.418Z,10.80
2023-05-16T21:10:55.374Z,10.80
2023-05-16T21:13:22.725Z,10.70
2023-05-16T21:15:49.827Z,10.70
2023-05-16T21:18:17.030Z,10.80
2023-05-16T21:20:44.187Z,10.80
2023-05-16T21:23:16.238Z,10.80
2023-05-16T21:25:43.185Z,10.80
2023-05-16T21:28:10.045Z,10.80
2023-05-16T21:30:36.886Z,10.80
2023-05-16T21:33:03.985Z,10.80
2023-05-16T21:35:31.235Z,10.80
2023-05-16T21:37:58.201Z,10.80
2023-05-16T21:40:25.801Z,10.80
2023-05-16T21:42:52.937Z,10.80
2023-05-16T21:45:20.120Z,10.80
2023-05-16T21:48:20.304Z,10.80
2023-05-16T21:50:47.244Z,10.80
2023-05-16T21:53:14.190Z,10.80
2023-05-16T21:55:41.041Z,10.80
2023-05-16T21:58:08.043Z,10.80
2023-05-16T22:00:34.961Z,10.80
2023-05-16T22:03:01.951Z,10.80
2023-05-16T22:05:29.664Z,10.80
2023-05-16T22:07:56.643Z,10.80
2023-05-16T22:10:23.600Z,10.80
2023-05-16T22:12:50.605Z,10.70
2023-05-16T22:15:17.504Z,10.70
2023-05-16T22:17:44.452Z,10.70
2023-05-16T22:20:11.828Z,10.70
2023-05-16T22:22:38.661Z,10.70
2023-05-16T22:25:05.930Z,10.70
2023-05-16T22:27:33.874Z,10.70
2023-05-16T22:30:00.699Z,10.70
2023-05-16T22:32:27.897Z,10.70
2023-05-16T22:34:54.865Z,10.70
2023-05-16T22:37:21.802Z,10.70
2023-05-16T22:39:49.849Z,10.70
2023-05-16T22:42:31.309Z,10.70
2023-05-16T22:45:26.127Z,10.70
2023-05-16T22:47:58.284Z,10.70
2023-05-16T22:50:26.217Z,10.70
2023-05-16T22:53:28.328Z,10.70
2023-05-16T22:55:55.418Z,10.70
2023-05-16T22:58:22.580Z,10.70
2023-05-16T23:01:14.975Z,10.70
2023-05-16T23:03:42.027Z,10.70
2023-05-16T23:06:08.998Z,10.70
2023-05-16T23:08:37.914Z,10.70
2023-05-16T23:11:04.918Z,10.70
2023-05-16T23:13:31.785Z,10.70
2023-05-16T23:15:58.652Z,10.70
2023-05-16T23:18:25.814Z,10.70
2023-05-16T23:20:52.686Z,10.60
2023-05-16T23:23:19.563Z,10.60
2023-05-16T23:25:50.393Z,10.60
2023-05-16T23:28:18.896Z,10.60
2023-05-16T23:30:45.840Z,10.60
2023-05-16T23:33:14.229Z,10.60
2023-05-16T23:35:41.386Z,10.60
2023-05-16T23:38:08.353Z,10.60
2023-05-16T23:40:35.292Z,10.60
2023-05-16T23:43:03.344Z,10.60
2023-05-16T23:45:30.480Z,10.70
2023-05-16T23:47:57.586Z,10.60
2023-05-16T23:50:24.465Z,10.60
2023-05-16T23:52:51.397Z,10.60
2023-05-16T23:55:19.923Z,10.50
2023-05-16T23:57:46.900Z,10.50
